createdAt,value
2019-03-24T00:01:02.338Z,26.90
2019-03-24T00:03:32.518Z,26.97
2019-03-24T00:06:03.741Z,31.93
2019-03-24T00:08:34.004Z,26.77
2019-03-24T00:11:04.449Z,28.90
2019-03-24T00:13:34.591Z,28.63
2019-03-24T00:16:04.880Z,27.47
2019-03-24T00:18:35.124Z,29.47
2019-03-24T00:21:05.317Z,26.47
2019-03-24T00:23:35.496Z,30.03
2019-03-24T00:26:05.776Z,23.00
2019-03-24T00:28:35.955Z,27.47
2019-03-24T00:31:06.663Z,19.33
2019-03-24T00:33:36.633Z,24.67
2019-03-24T00:36:06.796Z,24.57
2019-03-24T00:38:37.025Z,22.57
2019-03-24T00:41:07.264Z,21.93
2019-03-24T00:43:37.511Z,23.50
2019-03-24T00:46:07.810Z,27.23
2019-03-24T00:48:38.053Z,25.07
2019-03-24T00:51:08.220Z,15.97
2019-03-24T00:53:38.368Z,21.90
2019-03-24T00:56:08.530Z,25.63
2019-03-24T00:58:38.629Z,26.10
2019-03-24T01:01:08.860Z,26.43
2019-03-24T01:03:39.090Z,30.63
2019-03-24T01:06:09.399Z,26.03
2019-03-24T01:08:39.580Z,23.73
2019-03-24T01:11:09.781Z,22.73
2019-03-24T01:13:39.910Z,21.90
2019-03-24T01:16:10.154Z,24.33
2019-03-24T01:18:40.219Z,19.87
2019-03-24T01:21:10.373Z,22.40
2019-03-24T01:23:40.718Z,29.90
2019-03-24T01:26:10.944Z,24.60
2019-03-24T01:28:41.084Z,24.17
2019-03-24T01:31:11.866Z,21.17
2019-03-24T01:33:42.022Z,20.53
2019-03-24T01:36:12.294Z,22.60
2019-03-24T01:38:42.511Z,24.70
2019-03-24T01:41:12.574Z,32.23
2019-03-24T01:43:42.891Z,26.13
2019-03-24T01:46:13.108Z,20.73
2019-03-24T01:48:43.490Z,26.47
2019-03-24T01:51:13.842Z,35.97
2019-03-24T01:53:44.037Z,28.57
2019-03-24T01:56:14.188Z,22.23
2019-03-24T01:58:44.200Z,23.27
2019-03-24T02:01:14.352Z,22.57
2019-03-24T02:03:44.538Z,25.17
2019-03-24T02:06:14.701Z,24.33
2019-03-24T02:08:44.767Z,29.10
2019-03-24T02:11:14.955Z,26.47
2019-03-24T02:13:45.135Z,22.77
2019-03-24T02:16:15.379Z,21.77
2019-03-24T02:18:45.447Z,25.83
2019-03-24T02:21:15.803Z,27.00
2019-03-24T02:23:46.017Z,24.37
2019-03-24T02:26:16.063Z,23.30
2019-03-24T02:28:46.247Z,25.43
2019-03-24T02:31:16.399Z,24.10
2019-03-24T02:33:46.410Z,19.47
2019-03-24T02:36:16.661Z,24.03
2019-03-24T02:38:46.852Z,21.87
2019-03-24T02:41:16.952Z,22.20
2019-03-24T02:43:47.403Z,21.90
2019-03-24T02:46:24.250Z,25.27
2019-03-24T02:48:49.508Z,25.63
2019-03-24T02:51:19.790Z,22.23
2019-03-24T02:53:50.069Z,20.07
2019-03-24T02:56:20.108Z,24.70
2019-03-24T02:58:50.204Z,19.70
2019-03-24T03:01:20.388Z,24.03
2019-03-24T03:03:50.468Z,20.57
2019-03-24T03:06:20.715Z,22.17
2019-03-24T03:08:50.889Z,22.70
2019-03-24T03:11:21.137Z,19.63
2019-03-24T03:13:51.214Z,25.37
2019-03-24T03:16:21.594Z,26.63
2019-03-24T03:18:51.749Z,22.00
2019-03-24T03:21:21.941Z,24.70
2019-03-24T03:23:52.141Z,25.03
2019-03-24T03:26:22.273Z,24.40
2019-03-24T03:28:52.315Z,22.47
2019-03-24T03:31:22.392Z,27.53
2019-03-24T03:33:52.651Z,31.57
2019-03-24T03:36:22.919Z,24.63
2019-03-24T03:38:53.082Z,26.00
2019-03-24T03:41:23.331Z,41.43
2019-03-24T03:43:53.622Z,22.33
2019-03-24T03:46:23.766Z,26.43
2019-03-24T03:48:53.940Z,28.90
2019-03-24T03:51:24.132Z,29.13
2019-03-24T03:53:54.314Z,26.07
2019-03-24T03:56:24.595Z,22.87
2019-03-24T03:58:54.743Z,32.67
2019-03-24T04:01:24.881Z,25.07
2019-03-24T04:03:55.065Z,27.17
2019-03-24T04:06:25.305Z,30.83
2019-03-24T04:08:55.402Z,27.77
2019-03-24T04:11:25.444Z,27.87
2019-03-24T04:13:55.622Z,27.70
2019-03-24T04:16:25.823Z,26.47
2019-03-24T04:18:56.040Z,20.33
2019-03-24T04:21:26.299Z,29.63
2019-03-24T04:23:56.361Z,29.27
2019-03-24T04:26:26.519Z,25.57
2019-03-24T04:28:56.684Z,23.30
2019-03-24T04:31:27.081Z,24.83
2019-03-24T04:33:57.330Z,25.63
2019-03-24T04:36:27.507Z,29.33
2019-03-24T04:38:57.602Z,24.50
2019-03-24T04:41:27.780Z,29.10
2019-03-24T04:43:57.815Z,26.13
2019-03-24T04:46:27.981Z,22.03
2019-03-24T04:48:58.263Z,20.80
2019-03-24T04:51:28.429Z,37.53
2019-03-24T04:53:58.522Z,26.33
2019-03-24T04:56:28.814Z,29.83
2019-03-24T04:58:58.904Z,24.83
2019-03-24T05:01:29.030Z,24.57
2019-03-24T05:03:59.205Z,24.07
2019-03-24T05:06:29.526Z,26.53
2019-03-24T05:08:59.898Z,27.83
2019-03-24T05:11:30.030Z,27.20
2019-03-24T05:14:00.188Z,25.03
2019-03-24T05:16:30.152Z,24.37
2019-03-24T05:19:00.257Z,24.13
2019-03-24T05:21:30.276Z,23.60
2019-03-24T05:24:00.378Z,22.20
2019-03-24T05:26:30.555Z,25.50
2019-03-24T05:29:00.750Z,25.63
2019-03-24T05:31:30.925Z,25.87
2019-03-24T05:34:01.067Z,24.40
2019-03-24T05:36:31.323Z,25.13
2019-03-24T05:39:01.426Z,24.03
2019-03-24T05:41:31.512Z,24.67
2019-03-24T05:44:01.734Z,19.63
2019-03-24T05:46:31.941Z,22.63
2019-03-24T05:49:02.009Z,23.27
2019-03-24T05:51:32.160Z,26.47
2019-03-24T05:54:02.365Z,31.07
2019-03-24T05:56:32.414Z,24.23
2019-03-24T05:59:02.722Z,22.43
2019-03-24T06:01:32.813Z,23.83
2019-03-24T06:04:03.045Z,26.23
2019-03-24T06:06:33.197Z,23.80
2019-03-24T06:09:04.800Z,23.60
2019-03-24T06:11:34.843Z,23.77
2019-03-24T06:14:05.204Z,26.13
2019-03-24T06:16:35.578Z,25.20
2019-03-24T06:19:07.195Z,28.37
2019-03-24T06:21:37.287Z,24.23
2019-03-24T06:24:07.464Z,30.20
2019-03-24T06:26:37.519Z,27.60
2019-03-24T06:29:07.565Z,26.23
2019-03-24T06:31:37.813Z,21.77
2019-03-24T06:34:08.014Z,24.77
2019-03-24T06:36:38.259Z,26.27
2019-03-24T06:39:09.337Z,27.00
2019-03-24T06:41:39.402Z,23.83
2019-03-24T06:44:09.684Z,23.10
2019-03-24T06:46:39.867Z,20.17
2019-03-24T06:49:10.012Z,21.00
2019-03-24T06:51:40.256Z,22.70
2019-03-24T06:54:10.298Z,23.27
2019-03-24T06:56:40.639Z,21.93
2019-03-24T06:59:10.836Z,39.57
2019-03-24T07:01:41.176Z,22.70
2019-03-24T07:04:11.545Z,22.93
2019-03-24T07:06:41.751Z,22.57
2019-03-24T07:09:12.020Z,21.87
2019-03-24T07:11:42.265Z,34.20
2019-03-24T07:14:12.459Z,21.93
2019-03-24T07:16:42.550Z,22.63
2019-03-24T07:19:12.567Z,23.03
2019-03-24T07:21:42.860Z,28.80
2019-03-24T07:24:13.047Z,21.93
2019-03-24T07:26:43.080Z,20.60
2019-03-24T07:29:13.463Z,21.03
2019-03-24T07:31:43.629Z,22.90
2019-03-24T07:34:13.879Z,22.67
2019-03-24T07:36:44.098Z,26.03
2019-03-24T07:39:14.281Z,23.60
2019-03-24T07:41:44.464Z,24.50
2019-03-24T07:44:14.498Z,21.00
2019-03-24T07:46:44.582Z,24.17
2019-03-24T07:49:14.774Z,24.57
2019-03-24T07:51:44.721Z,26.27
2019-03-24T07:54:14.883Z,25.00
2019-03-24T07:56:45.137Z,25.10
2019-03-24T07:59:15.365Z,25.90
2019-03-24T08:01:45.595Z,26.50
2019-03-24T08:04:15.794Z,26.00
2019-03-24T08:06:45.944Z,29.50
2019-03-24T08:09:16.226Z,27.43
2019-03-24T08:11:46.551Z,24.60
2019-03-24T08:14:16.715Z,25.40
2019-03-24T08:16:46.821Z,21.73
2019-03-24T08:19:17.082Z,25.93
2019-03-24T08:21:47.210Z,26.77
2019-03-24T08:24:17.501Z,22.60
2019-03-24T08:26:47.640Z,20.70
2019-03-24T08:29:17.678Z,22.57
2019-03-24T08:31:47.867Z,24.13
2019-03-24T08:34:18.090Z,24.63
2019-03-24T08:36:48.409Z,21.43
2019-03-24T08:39:18.513Z,24.17
2019-03-24T08:41:48.602Z,18.37
2019-03-24T08:44:18.944Z,20.20
2019-03-24T08:46:49.359Z,20.23
2019-03-24T08:49:20.714Z,21.10
2019-03-24T08:51:51.310Z,19.70
2019-03-24T08:54:21.574Z,19.63
2019-03-24T08:56:51.856Z,18.60
2019-03-24T08:59:22.129Z,16.80
2019-03-24T09:01:52.404Z,16.73
2019-03-24T09:04:22.717Z,13.47
2019-03-24T09:06:52.948Z,15.63
2019-03-24T09:09:23.179Z,17.30
2019-03-24T09:11:53.290Z,15.23
2019-03-24T09:14:23.545Z,13.70
2019-03-24T09:16:53.919Z,12.43
2019-03-24T09:19:24.079Z,16.53
2019-03-24T09:21:55.277Z,12.77
2019-03-24T09:24:25.398Z,13.10
2019-03-24T09:26:55.575Z,11.97
2019-03-24T09:29:25.780Z,17.70
2019-03-24T09:31:56.026Z,12.90
2019-03-24T09:34:26.325Z,14.97
2019-03-24T09:36:56.610Z,12.43
2019-03-24T09:39:26.748Z,11.20
2019-03-24T09:41:56.955Z,13.53
2019-03-24T09:44:27.023Z,13.00
2019-03-24T09:46:57.335Z,11.20
2019-03-24T09:49:27.348Z,12.30
2019-03-24T09:51:57.488Z,13.43
2019-03-24T09:54:27.664Z,13.83
2019-03-24T09:56:57.879Z,12.73
2019-03-24T09:59:28.113Z,12.10
2019-03-24T10:01:58.292Z,12.90
2019-03-24T10:04:28.498Z,13.53
2019-03-24T10:06:58.526Z,11.57
2019-03-24T10:09:28.759Z,13.30
2019-03-24T10:11:59.062Z,13.30
2019-03-24T10:14:29.271Z,11.07
2019-03-24T10:16:59.571Z,10.60
2019-03-24T10:19:30.698Z,14.23
2019-03-24T10:22:00.787Z,17.00
2019-03-24T10:24:30.935Z,12.23
2019-03-24T10:27:01.195Z,11.10
2019-03-24T10:29:31.392Z,11.57
2019-03-24T10:32:01.461Z,11.30
2019-03-24T10:34:31.620Z,13.27
2019-03-24T10:37:01.831Z,9.13
2019-03-24T10:39:32.173Z,15.97
2019-03-24T10:42:02.216Z,17.70
2019-03-24T10:44:32.489Z,11.43
2019-03-24T10:47:02.665Z,19.97
2019-03-24T10:49:32.823Z,9.83
2019-03-24T10:52:03.007Z,11.23
2019-03-24T10:54:33.218Z,10.07
2019-03-24T10:57:05.343Z,10.63
2019-03-24T10:59:35.331Z,13.47
2019-03-24T11:02:05.543Z,12.77
2019-03-24T11:04:35.788Z,10.83
2019-03-24T11:07:06.081Z,11.70
2019-03-24T11:09:36.366Z,11.70
2019-03-24T11:12:06.663Z,13.47
2019-03-24T11:14:36.843Z,13.63
2019-03-24T11:17:07.022Z,10.17
2019-03-24T11:19:37.330Z,10.70
2019-03-24T11:22:07.610Z,11.10
2019-03-24T11:24:37.756Z,13.43
2019-03-24T11:27:07.913Z,12.40
2019-03-24T11:29:37.891Z,11.27
2019-03-24T11:32:08.050Z,17.77
2019-03-24T11:34:38.143Z,14.43
2019-03-24T11:37:08.384Z,11.53
2019-03-24T11:39:38.603Z,14.73
2019-03-24T11:42:08.913Z,13.33
2019-03-24T11:44:39.118Z,14.27
2019-03-24T11:47:09.301Z,12.70
2019-03-24T11:49:45.899Z,13.50
2019-03-24T11:52:11.434Z,17.67
2019-03-24T11:54:41.666Z,14.83
2019-03-24T11:57:11.834Z,18.87
2019-03-24T11:59:41.984Z,19.67
2019-03-24T12:02:12.186Z,15.00
2019-03-24T12:04:45.303Z,12.70
2019-03-24T12:07:15.483Z,18.30
2019-03-24T12:09:47.359Z,14.27
2019-03-24T12:12:17.526Z,14.57
2019-03-24T12:14:47.816Z,17.70
2019-03-24T12:17:18.052Z,15.53
2019-03-24T12:19:56.494Z,17.67
2019-03-24T12:22:20.308Z,16.93
2019-03-24T12:24:50.604Z,16.10
2019-03-24T12:27:20.786Z,18.13
2019-03-24T12:29:50.928Z,14.13
2019-03-24T12:32:21.117Z,12.80
2019-03-24T12:34:51.143Z,15.90
2019-03-24T12:37:21.506Z,17.37
2019-03-24T12:39:51.891Z,18.87
2019-03-24T12:42:22.041Z,11.50
2019-03-24T12:44:52.101Z,14.97
2019-03-24T12:47:22.806Z,14.03
2019-03-24T12:49:52.958Z,14.60
2019-03-24T12:52:23.164Z,12.73
2019-03-24T12:54:53.216Z,15.70
2019-03-24T12:57:23.382Z,14.67
2019-03-24T12:59:53.516Z,14.57
2019-03-24T13:02:24.087Z,15.47
2019-03-24T13:04:54.429Z,16.50
2019-03-24T13:07:24.728Z,13.83
2019-03-24T13:09:54.807Z,11.07
2019-03-24T13:12:25.117Z,12.03
2019-03-24T13:14:55.376Z,15.57
2019-03-24T13:17:25.609Z,12.57
2019-03-24T13:19:55.891Z,15.60
2019-03-24T13:22:26.076Z,14.77
2019-03-24T13:24:56.098Z,16.87
2019-03-24T13:27:26.414Z,14.03
2019-03-24T13:29:56.567Z,14.53
2019-03-24T13:32:26.736Z,13.67
2019-03-24T13:34:56.894Z,12.77
2019-03-24T13:37:27.240Z,12.40
2019-03-24T13:39:57.418Z,14.17
2019-03-24T13:42:27.589Z,18.13
2019-03-24T13:44:57.977Z,14.53
2019-03-24T13:47:28.269Z,17.13
2019-03-24T13:49:58.303Z,14.75
2019-03-24T13:52:28.542Z,15.70
2019-03-24T13:54:58.740Z,17.83
2019-03-24T13:57:28.847Z,16.47
2019-03-24T13:59:59.023Z,11.10
2019-03-24T14:02:29.356Z,11.67
2019-03-24T14:04:59.433Z,15.93
2019-03-24T14:07:29.563Z,28.97
2019-03-24T14:09:59.672Z,13.70
2019-03-24T14:12:29.961Z,13.83
2019-03-24T14:15:00.321Z,15.23
2019-03-24T14:17:30.686Z,13.80
2019-03-24T14:20:00.944Z,14.87
2019-03-24T14:22:31.004Z,12.63
2019-03-24T14:25:01.279Z,17.00
2019-03-24T14:27:31.480Z,15.83
2019-03-24T14:30:01.663Z,13.93
2019-03-24T14:32:31.895Z,13.67
2019-03-24T14:35:02.080Z,18.03
2019-03-24T14:37:32.306Z,22.97
2019-03-24T14:40:02.576Z,22.07
2019-03-24T14:42:32.833Z,15.53
2019-03-24T14:45:02.922Z,22.40
2019-03-24T14:47:33.158Z,14.60
2019-03-24T14:50:03.433Z,16.40
2019-03-24T14:52:33.675Z,14.50
2019-03-24T14:55:03.924Z,20.27
2019-03-24T14:57:34.097Z,14.40
2019-03-24T15:00:05.129Z,15.70
2019-03-24T15:02:35.345Z,15.63
2019-03-24T15:05:06.202Z,16.33
2019-03-24T15:07:36.505Z,15.43
2019-03-24T15:10:06.978Z,13.13
2019-03-24T15:12:37.308Z,17.67
2019-03-24T15:15:07.855Z,14.07
2019-03-24T15:17:38.176Z,17.80
2019-03-24T15:20:08.529Z,19.47
2019-03-24T15:22:38.680Z,13.53
2019-03-24T15:25:08.934Z,11.43
2019-03-24T15:27:39.190Z,20.93
2019-03-24T15:30:10.443Z,17.03
2019-03-24T15:32:40.657Z,12.83
2019-03-24T15:35:11.171Z,12.73
2019-03-24T15:37:41.290Z,15.60
2019-03-24T15:40:11.645Z,12.37
2019-03-24T15:42:41.771Z,13.53
2019-03-24T15:45:12.130Z,20.80
2019-03-24T15:47:42.380Z,17.20
2019-03-24T15:50:12.995Z,11.80
2019-03-24T15:52:43.200Z,13.83
2019-03-24T15:55:13.397Z,16.00
2019-03-24T15:57:43.569Z,10.67
2019-03-24T16:00:14.348Z,11.47
2019-03-24T16:02:44.572Z,8.53
2019-03-24T16:05:14.862Z,9.17
2019-03-24T16:07:45.012Z,9.43
2019-03-24T16:10:16.140Z,7.87
2019-03-24T16:12:46.309Z,14.67
2019-03-24T16:15:16.625Z,7.80
2019-03-24T16:17:46.760Z,10.07
2019-03-24T16:20:16.879Z,11.87
2019-03-24T16:22:46.925Z,9.40
2019-03-24T16:25:16.994Z,17.67
2019-03-24T16:27:47.291Z,15.03
2019-03-24T16:30:17.556Z,41.63
2019-03-24T16:32:49.488Z,15.00
2019-03-24T16:35:19.673Z,12.37
2019-03-24T16:37:49.838Z,9.73
2019-03-24T16:40:20.027Z,11.60
2019-03-24T16:42:50.153Z,12.03
2019-03-24T16:45:20.342Z,11.33
2019-03-24T16:47:50.598Z,9.50
2019-03-24T16:50:20.887Z,9.43
2019-03-24T16:52:51.099Z,8.97
2019-03-24T16:55:21.260Z,13.27
2019-03-24T16:57:51.604Z,17.43
2019-03-24T17:00:22.139Z,13.30
2019-03-24T17:02:52.370Z,17.40
2019-03-24T17:05:22.510Z,13.43
2019-03-24T17:07:52.668Z,17.93
2019-03-24T17:10:22.715Z,18.27
2019-03-24T17:12:53.066Z,24.43
2019-03-24T17:15:23.295Z,30.33
2019-03-24T17:17:53.431Z,22.37
2019-03-24T17:20:23.723Z,22.90
2019-03-24T17:22:53.817Z,19.37
2019-03-24T17:25:25.081Z,21.07
2019-03-24T17:27:55.291Z,27.33
2019-03-24T17:30:25.310Z,32.40
2019-03-24T17:32:55.504Z,22.67
2019-03-24T17:35:25.731Z,18.23
2019-03-24T17:37:55.983Z,20.47
2019-03-24T17:40:26.306Z,18.67
2019-03-24T17:42:57.071Z,19.23
2019-03-24T17:45:27.366Z,17.20
2019-03-24T17:47:57.542Z,21.23
2019-03-24T17:50:27.791Z,23.83
2019-03-24T17:52:58.150Z,22.10
2019-03-24T17:55:30.876Z,16.83
2019-03-24T17:58:00.300Z,22.37
2019-03-24T18:00:42.163Z,30.90
2019-03-24T18:03:12.485Z,49.43
2019-03-24T18:05:42.889Z,35.37
2019-03-24T18:08:13.176Z,32.33
2019-03-24T18:10:43.410Z,39.10
2019-03-24T18:13:13.541Z,35.30
2019-03-24T18:15:43.795Z,40.70
2019-03-24T18:18:13.919Z,50.67
2019-03-24T18:20:44.076Z,38.30
2019-03-24T18:23:14.178Z,31.80
2019-03-24T18:25:44.425Z,39.93
2019-03-24T18:28:14.644Z,35.20
2019-03-24T18:30:44.810Z,38.70
2019-03-24T18:33:15.149Z,27.83
2019-03-24T18:35:45.274Z,38.07
2019-03-24T18:38:15.481Z,31.17
2019-03-24T18:40:45.771Z,32.30
2019-03-24T18:43:15.868Z,33.10
2019-03-24T18:45:46.136Z,33.13
2019-03-24T18:48:16.464Z,30.50
2019-03-24T18:50:46.659Z,34.70
2019-03-24T18:53:16.901Z,29.53
2019-03-24T18:55:47.112Z,33.47
2019-03-24T18:58:17.331Z,35.83
2019-03-24T19:00:47.442Z,38.87
2019-03-24T19:03:17.701Z,32.00
2019-03-24T19:05:47.955Z,29.70
2019-03-24T19:08:18.132Z,27.40
2019-03-24T19:10:48.307Z,29.33
2019-03-24T19:13:18.578Z,26.57
2019-03-24T19:15:48.753Z,24.17
2019-03-24T19:18:18.899Z,23.43
2019-03-24T19:20:49.170Z,23.83
2019-03-24T19:23:19.411Z,19.63
2019-03-24T19:25:49.613Z,24.63
2019-03-24T19:28:19.801Z,22.53
2019-03-24T19:30:49.883Z,23.33
2019-03-24T19:33:20.339Z,25.47
2019-03-24T19:35:50.566Z,25.00
2019-03-24T19:38:21.584Z,26.67
2019-03-24T19:40:51.769Z,38.10
2019-03-24T19:43:21.928Z,29.63
2019-03-24T19:45:52.128Z,26.03
2019-03-24T19:48:22.271Z,39.83
2019-03-24T19:50:52.550Z,36.70
2019-03-24T19:53:22.875Z,34.10
2019-03-24T19:55:53.131Z,26.80
2019-03-24T19:58:23.306Z,26.60
2019-03-24T20:00:53.443Z,22.17
2019-03-24T20:03:23.531Z,24.77
2019-03-24T20:05:53.808Z,25.23
2019-03-24T20:08:24.006Z,24.10
2019-03-24T20:10:56.011Z,28.83
2019-03-24T20:13:26.230Z,23.27
2019-03-24T20:15:56.460Z,24.67
2019-03-24T20:18:26.817Z,26.57
2019-03-24T20:20:57.005Z,23.93
2019-03-24T20:23:27.179Z,31.47
2019-03-24T20:25:57.547Z,30.37
2019-03-24T20:28:27.728Z,34.27
2019-03-24T20:30:57.911Z,31.20
2019-03-24T20:33:28.138Z,28.17
2019-03-24T20:35:58.192Z,28.57
2019-03-24T20:38:29.304Z,24.10
2019-03-24T20:40:59.548Z,33.27
2019-03-24T20:43:29.709Z,35.97
2019-03-24T20:45:59.905Z,24.40
2019-03-24T20:48:30.062Z,34.47
2019-03-24T20:51:00.311Z,46.23
2019-03-24T20:53:30.564Z,67.30
2019-03-24T20:56:00.763Z,56.03
2019-03-24T20:58:30.973Z,48.03
2019-03-24T21:01:01.300Z,56.23
2019-03-24T21:03:31.601Z,82.47
2019-03-24T21:06:01.722Z,72.37
2019-03-24T21:08:31.791Z,59.77
2019-03-24T21:11:02.019Z,68.17
2019-03-24T21:13:32.281Z,67.00
2019-03-24T21:16:02.553Z,61.60
2019-03-24T21:18:32.643Z,43.90
2019-03-24T21:21:02.831Z,35.73
2019-03-24T21:23:32.861Z,24.50
2019-03-24T21:26:03.150Z,18.20
2019-03-24T21:28:33.241Z,17.60
2019-03-24T21:31:03.453Z,23.03
2019-03-24T21:33:33.656Z,19.40
2019-03-24T21:36:03.970Z,18.57
2019-03-24T21:38:33.997Z,18.90
2019-03-24T21:41:05.532Z,16.60
2019-03-24T21:43:35.634Z,13.13
2019-03-24T21:46:05.929Z,19.20
2019-03-24T21:48:36.172Z,11.93
2019-03-24T21:51:06.455Z,18.97
2019-03-24T21:53:40.916Z,18.80
2019-03-24T21:56:08.522Z,14.50
2019-03-24T21:58:38.571Z,15.50
2019-03-24T22:01:08.692Z,15.67
2019-03-24T22:03:38.888Z,21.57
2019-03-24T22:06:09.194Z,15.70
2019-03-24T22:08:39.254Z,16.60
2019-03-24T22:11:09.304Z,21.07
2019-03-24T22:13:39.522Z,15.13
2019-03-24T22:16:09.767Z,13.70
2019-03-24T22:18:39.956Z,19.47
2019-03-24T22:21:10.256Z,17.47
2019-03-24T22:23:51.596Z,19.23
2019-03-24T22:26:12.308Z,27.10
2019-03-24T22:28:42.497Z,16.90
2019-03-24T22:31:12.695Z,22.53
2019-03-24T22:33:42.923Z,20.43
2019-03-24T22:36:13.170Z,24.47
2019-03-24T22:38:43.713Z,22.13
2019-03-24T22:41:13.941Z,18.43
2019-03-24T22:43:44.021Z,22.97
2019-03-24T22:46:14.220Z,25.23
2019-03-24T22:48:44.464Z,28.10
2019-03-24T22:51:14.699Z,29.60
2019-03-24T22:53:45.041Z,27.60
2019-03-24T22:56:15.189Z,22.70
2019-03-24T22:58:45.363Z,26.73
2019-03-24T23:01:17.372Z,23.07
2019-03-24T23:03:47.643Z,27.83
2019-03-24T23:06:17.916Z,26.40
2019-03-24T23:08:48.259Z,26.70
2019-03-24T23:11:18.518Z,29.80
2019-03-24T23:13:48.734Z,29.77
2019-03-24T23:16:18.924Z,29.13
2019-03-24T23:18:49.179Z,29.43
2019-03-24T23:21:19.386Z,31.87
2019-03-24T23:23:49.556Z,25.23
2019-03-24T23:26:19.615Z,35.63
2019-03-24T23:28:49.977Z,33.50
2019-03-24T23:31:19.994Z,30.27
2019-03-24T23:33:50.145Z,26.20
2019-03-24T23:36:20.168Z,30.77
2019-03-24T23:38:50.398Z,25.33
2019-03-24T23:41:20.509Z,31.93
2019-03-24T23:43:50.688Z,28.57
2019-03-24T23:46:20.876Z,21.07
2019-03-24T23:48:51.001Z,24.20
2019-03-24T23:51:21.303Z,31.93
2019-03-24T23:53:51.496Z,21.53
2019-03-24T23:56:21.652Z,23.93
2019-03-24T23:58:51.865Z,18.40
